Time;durP1;ratioP1;P1;durP2;ratioP2;P2;SDS_P1;SDS_P2;PMS_P1;PMS_P2;Temp;Humidity;BMP_temperature;BMP_pressure;BME280_temperature;BME280_humidity;BME280_pressure;Samples;Min_cycle;Max_cycle;Signal;HPM_P1;HPM_P2
2022/08/11 00:00:12;;;;;;;;;;;28.90;45.90;;;;;;857126;23;769;-84
2022/08/11 00:00:33;;;;;;;;;;;;;;;;;;856945;23;1180;-84
2022/08/11 00:00:54;;;;;;;;;;;28.90;46.00;;;;;;857067;23;790;-84
2022/08/11 00:01:19;;;;;;;;;;;28.90;46.00;;;;;;852806;23;1580;-86
2022/08/11 00:01:43;;;;;;;;;;;28.90;46.00;;;;;;851794;23;1253;-86
2022/08/11 00:02:04;;;;;;;;;;;29.00;46.00;;;;;;848617;23;1192;-83
2022/08/11 00:02:31;;;;;;;;;;;28.90;45.90;;;;;;848815;23;850;-83
2022/08/11 00:02:52;;;;;;;;;;;28.90;46.00;;;;;;848819;23;838;-84
2022/08/11 00:03:13;;;;;;;;;;;28.90;46.20;;;;;;852120;23;842;-85
2022/08/11 00:03:34;;;;;;;;;;;28.90;46.10;;;;;;855608;23;933;-84
2022/08/11 00:03:55;;;;;;;;;;;;;;;;;;854903;23;1200;-83
2022/08/11 00:04:16;;;;;;;;;;;28.90;46.10;;;;;;852374;23;1695;-83
2022/08/11 00:04:38;;;;;;;;;;;;;;;;;;853047;23;786;-83
2022/08/11 00:05:01;;;;;;;;;;;28.90;46.10;;;;;;852626;23;1258;-84
2022/08/11 00:05:22;;;;;;;;;;;28.90;46.00;;;;;;852964;23;790;-86
2022/08/11 00:05:46;;;;;;;;;;;28.90;46.10;;;;;;854422;23;881;-82
2022/08/11 00:06:07;;;;;;;;;;;28.90;46.00;;;;;;857083;23;797;-83
2022/08/11 00:06:28;;;;;;;;;;;;;;;;;;857104;23;767;-82
2022/08/11 00:06:49;;;;;;;;;;;28.90;46.30;;;;;;857218;23;763;-82
2022/08/11 00:07:09;;;;;;;;;;;28.90;46.50;;;;;;857337;23;912;-83
2022/08/11 00:07:31;;;;;;;;;;;28.90;46.40;;;;;;857371;23;797;-83
2022/08/11 00:07:51;;;;;;;;;;;;;;;;;;857333;23;790;-82
2022/08/11 00:08:22;;;;;;;;;;;28.90;46.60;;;;;;857325;23;896;-82
2022/08/11 00:08:48;;;;;;;;;;;28.90;46.50;;;;;;857348;23;826;-83
2022/08/11 00:09:15;;;;;;;;;;;28.90;46.20;;;;;;857343;23;758;-83
2022/08/11 00:09:36;;;;;;;;;;;28.90;46.50;;;;;;857295;23;824;-82
2022/08/11 00:09:57;;;;;;;;;;;;;;;;;;857319;23;845;-82
2022/08/11 00:10:19;;;;;;;;;;;28.90;46.40;;;;;;857173;23;904;-82
2022/08/11 00:10:40;;;;;;;;;;;28.90;46.30;;;;;;857292;23;897;-83
2022/08/11 00:11:03;;;;;;;;;;;28.90;46.60;;;;;;857348;23;860;-83
2022/08/11 00:11:38;;;;;;;;;;;28.90;46.40;;;;;;857289;23;854;-82
2022/08/11 00:11:59;;;;;;;;;;;28.90;46.40;;;;;;857364;23;903;-83
2022/08/11 00:12:19;;;;;;;;;;;28.90;46.50;;;;;;857291;23;814;-82
2022/08/11 00:12:41;;;;;;;;;;;28.90;46.30;;;;;;857293;23;941;-82
2022/08/11 00:13:04;;;;;;;;;;;28.80;46.50;;;;;;857355;23;782;-82
2022/08/11 00:13:36;;;;;;;;;;;28.80;46.60;;;;;;857295;23;941;-81
2022/08/11 00:13:58;;;;;;;;;;;28.90;46.60;;;;;;856279;23;814;-82
2022/08/11 00:14:20;;;;;;;;;;;28.80;46.20;;;;;;857130;23;805;-81
2022/08/11 00:14:41;;;;;;;;;;;28.80;46.50;;;;;;857051;23;854;-81
2022/08/11 00:15:02;;;;;;;;;;;28.90;46.80;;;;;;856972;23;1004;-82
2022/08/11 00:15:24;;;;;;;;;;;28.90;46.80;;;;;;857004;23;843;-82
2022/08/11 00:15:44;;;;;;;;;;;28.80;46.80;;;;;;857129;23;912;-82
2022/08/11 00:16:11;;;;;;;;;;;28.80;47.20;;;;;;857396;23;817;-82
2022/08/11 00:16:32;;;;;;;;;;;28.90;47.10;;;;;;857413;23;785;-81
2022/08/11 00:16:57;;;;;;;;;;;28.90;47.10;;;;;;857364;23;762;-81
2022/08/11 00:17:18;;;;;;;;;;;28.90;47.10;;;;;;857258;23;865;-82
2022/08/11 00:17:39;;;;;;;;;;;28.80;46.70;;;;;;857386;23;829;-81
2022/08/11 00:18:00;;;;;;;;;;;28.80;46.80;;;;;;857320;23;876;-82
2022/08/11 00:18:21;;;;;;;;;;;28.80;47.20;;;;;;857413;23;821;-81
2022/08/11 00:18:43;;;;;;;;;;;28.80;47.30;;;;;;857401;23;821;-81
2022/08/11 00:19:03;;;;;;;;;;;28.90;47.30;;;;;;857278;23;785;-82
2022/08/11 00:19:26;;;;;;;;;;;28.80;47.40;;;;;;857194;23;937;-82
2022/08/11 00:19:47;;;;;;;;;;;28.90;47.50;;;;;;857342;23;817;-82
2022/08/11 00:20:09;;;;;;;;;;;28.90;47.50;;;;;;857294;23;797;-82
2022/08/11 00:20:31;;;;;;;;;;;28.80;47.50;;;;;;857295;23;832;-81
2022/08/11 00:20:57;;;;;;;;;;;28.90;47.50;;;;;;857321;23;921;-82
2022/08/11 00:21:19;;;;;;;;;;;28.80;47.50;;;;;;857231;23;809;-82
2022/08/11 00:21:40;;;;;;;;;;;;;;;;;;857262;23;849;-82
2022/08/11 00:22:01;;;;;;;;;;;;;;;;;;857244;23;886;-83
2022/08/11 00:22:22;;;;;;;;;;;28.80;47.50;;;;;;857159;23;901;-79
2022/08/11 00:22:46;;;;;;;;;;;28.80;47.50;;;;;;857357;23;862;-81
2022/08/11 00:23:08;;;;;;;;;;;28.80;47.50;;;;;;857308;23;801;-82
2022/08/11 00:23:28;;;;;;;;;;;28.90;47.70;;;;;;857247;23;1396;-82
2022/08/11 00:24:03;;;;;;;;;;;28.80;47.60;;;;;;856969;23;1244;-82
2022/08/11 00:24:24;;;;;;;;;;;28.80;47.60;;;;;;856945;23;932;-82
2022/08/11 00:24:44;;;;;;;;;;;28.80;47.60;;;;;;856920;23;1473;-82
2022/08/11 00:25:13;;;;;;;;;;;28.80;47.60;;;;;;857083;23;858;-82
2022/08/11 00:25:39;;;;;;;;;;;28.80;47.70;;;;;;856872;23;805;-81
2022/08/11 00:26:00;;;;;;;;;;;28.80;47.70;;;;;;857541;23;778;-82
2022/08/11 00:26:21;;;;;;;;;;;28.80;47.70;;;;;;857296;23;860;-82
2022/08/11 00:26:46;;;;;;;;;;;28.80;47.70;;;;;;857346;23;896;-82
2022/08/11 00:27:07;;;;;;;;;;;28.90;47.80;;;;;;857290;23;916;-82
2022/08/11 00:27:27;;;;;;;;;;;;;;;;;;857322;23;798;-81
2022/08/11 00:27:48;;;;;;;;;;;28.80;47.70;;;;;;857375;23;817;-81
2022/08/11 00:28:35;;;;;;;;;;;28.80;47.80;;;;;;857327;23;968;-82
2022/08/11 00:28:55;;;;;;;;;;;;;;;;;;854136;23;2036;-83
2022/08/11 00:29:16;;;;;;;;;;;28.80;47.90;;;;;;857336;23;798;-81
2022/08/11 00:29:37;;;;;;;;;;;;;;;;;;857236;23;773;-82
2022/08/11 00:29:58;;;;;;;;;;;28.80;47.90;;;;;;857167;23;1255;-82
2022/08/11 00:30:18;;;;;;;;;;;28.80;47.90;;;;;;857249;23;805;-82
2022/08/11 00:30:39;;;;;;;;;;;28.80;47.90;;;;;;856935;23;1129;-82
2022/08/11 00:31:00;;;;;;;;;;;;;;;;;;857030;23;794;-82
2022/08/11 00:31:23;;;;;;;;;;;28.80;47.90;;;;;;857053;23;781;-82
2022/08/11 00:31:46;;;;;;;;;;;28.80;47.80;;;;;;857067;23;878;-82
2022/08/11 00:32:12;;;;;;;;;;;28.80;48.00;;;;;;857018;23;786;-81
2022/08/11 00:32:33;;;;;;;;;;;28.80;47.90;;;;;;857205;23;842;-81
2022/08/11 00:32:55;;;;;;;;;;;28.80;47.90;;;;;;857419;23;798;-82
2022/08/11 00:33:15;;;;;;;;;;;;;;;;;;857382;23;766;-81
2022/08/11 00:33:41;;;;;;;;;;;28.80;47.90;;;;;;856879;23;1172;-82
2022/08/11 00:34:03;;;;;;;;;;;28.80;47.90;;;;;;857120;23;900;-81
2022/08/11 00:34:25;;;;;;;;;;;28.80;48.00;;;;;;857118;23;809;-82
2022/08/11 00:34:46;;;;;;;;;;;28.80;48.00;;;;;;857040;23;801;-82
2022/08/11 00:35:09;;;;;;;;;;;28.80;48.00;;;;;;857000;23;1249;-82
2022/08/11 00:35:31;;;;;;;;;;;28.80;48.00;;;;;;857228;23;864;-81
2022/08/11 00:35:55;;;;;;;;;;;28.80;48.00;;;;;;857337;23;849;-81
2022/08/11 00:36:16;;;;;;;;;;;28.80;48.00;;;;;;856944;23;836;-82
2022/08/11 00:36:57;;;;;;;;;;;28.80;48.10;;;;;;857110;23;765;-82
2022/08/11 00:37:18;;;;;;;;;;;;;;;;;;848831;23;1070;-83
2022/08/11 00:37:43;;;;;;;;;;;28.80;48.10;;;;;;848613;23;1074;-81
2022/08/11 00:38:05;;;;;;;;;;;28.80;48.10;;;;;;850111;23;901;-81
2022/08/11 00:38:33;;;;;;;;;;;28.80;48.10;;;;;;852800;23;1045;-82
2022/08/11 00:39:01;;;;;;;;;;;28.80;48.20;;;;;;852788;23;789;-81
2022/08/11 00:39:23;;;;;;;;;;;28.80;48.20;;;;;;852850;23;818;-81
2022/08/11 00:39:45;;;;;;;;;;;28.80;48.20;;;;;;852772;23;696;-82
2022/08/11 00:40:14;;;;;;;;;;;28.80;48.20;;;;;;852833;23;1120;-83
2022/08/11 00:40:50;;;;;;;;;;;28.80;48.30;;;;;;852749;23;778;-82
2022/08/11 00:41:29;;;;;;;;;;;28.70;48.10;;;;;;852792;23;972;-83
2022/08/11 00:41:59;;;;;;;;;;;28.80;48.30;;;;;;852607;23;1612;-82
2022/08/11 00:42:23;;;;;;;;;;;28.80;48.30;;;;;;852852;23;798;-82
2022/08/11 00:42:43;;;;;;;;;;;28.70;48.20;;;;;;852644;23;967;-82
2022/08/11 00:43:22;;;;;;;;;;;28.70;48.20;;;;;;852734;23;1073;-81
2022/08/11 00:44:01;;;;;;;;;;;28.70;48.30;;;;;;852722;23;900;-81
2022/08/11 00:44:24;;;;;;;;;;;28.80;48.30;;;;;;852829;23;873;-81
2022/08/11 00:45:03;;;;;;;;;;;28.70;48.30;;;;;;852694;23;1333;-82
2022/08/11 00:45:30;;;;;;;;;;;28.80;48.40;;;;;;852780;23;909;-81
2022/08/11 00:46:09;;;;;;;;;;;28.80;48.40;;;;;;852811;23;758;-81
2022/08/11 00:46:30;;;;;;;;;;;;;;;;;;852847;23;913;-82
2022/08/11 00:47:02;;;;;;;;;;;28.80;48.40;;;;;;852812;23;770;-82
2022/08/11 00:47:27;;;;;;;;;;;28.70;48.40;;;;;;852665;23;842;-81
2022/08/11 00:47:48;;;;;;;;;;;;;;;;;;852611;23;1353;-83
2022/08/11 00:48:27;;;;;;;;;;;28.70;48.30;;;;;;852674;23;856;-82
2022/08/11 00:48:48;;;;;;;;;;;;;;;;;;852686;23;755;-83
2022/08/11 00:49:27;;;;;;;;;;;28.80;48.40;;;;;;852691;23;782;-81
2022/08/11 00:49:47;;;;;;;;;;;;;;;;;;848395;23;1634;-83
2022/08/11 00:50:08;;;;;;;;;;;28.70;48.30;;;;;;844479;23;1314;-80
2022/08/11 00:50:41;;;;;;;;;;;28.70;48.40;;;;;;844633;23;881;-82
2022/08/11 00:51:20;;;;;;;;;;;28.70;48.30;;;;;;844622;23;905;-81
2022/08/11 00:51:40;;;;;;;;;;;28.80;48.50;;;;;;846882;23;775;-81
2022/08/11 00:52:12;;;;;;;;;;;28.80;48.40;;;;;;851055;23;584;-82
2022/08/11 00:52:39;;;;;;;;;;;28.80;48.50;;;;;;852844;23;809;-81
2022/08/11 00:53:15;;;;;;;;;;;28.80;48.40;;;;;;852781;23;909;-81
2022/08/11 00:53:35;;;;;;;;;;;28.70;48.40;;;;;;852709;23;874;-82
2022/08/11 00:54:01;;;;;;;;;;;28.70;48.40;;;;;;852602;23;921;-82
2022/08/11 00:54:31;;;;;;;;;;;28.80;48.60;;;;;;852745;23;917;-81
2022/08/11 00:55:10;;;;;;;;;;;28.70;48.50;;;;;;852434;23;1140;-83
2022/08/11 00:55:50;;;;;;;;;;;28.70;49.10;;;;;;852848;23;896;-81
2022/08/11 00:56:29;;;;;;;;;;;28.70;49.10;;;;;;852728;23;1008;-82
2022/08/11 00:57:08;;;;;;;;;;;28.60;49.30;;;;;;852669;23;921;-81
2022/08/11 00:57:44;;;;;;;;;;;28.70;49.70;;;;;;852747;23;908;-81
2022/08/11 00:58:16;;;;;;;;;;;28.70;49.80;;;;;;852682;23;932;-82
2022/08/11 00:58:37;;;;;;;;;;;;;;;;;;848590;23;829;-81
2022/08/11 00:59:26;;;;;;;;;;;28.70;49.60;;;;;;848577;23;795;-82
2022/08/11 00:59:48;;;;;;;;;;;;;;;;;;848504;23;758;-81
2022/08/11 01:00:15;;;;;;;;;;;28.80;49.60;;;;;;848472;23;878;-81
2022/08/11 01:00:54;;;;;;;;;;;28.70;49.50;;;;;;852149;23;881;-82
2022/08/11 01:01:15;;;;;;;;;;;28.70;49.50;;;;;;852839;23;932;-82
2022/08/11 01:01:36;;;;;;;;;;;;;;;;;;852764;23;912;-82
2022/08/11 01:01:56;;;;;;;;;;;28.70;49.40;;;;;;852674;23;834;-82
2022/08/11 01:02:18;;;;;;;;;;;28.70;49.30;;;;;;852622;23;809;-81
2022/08/11 01:02:38;;;;;;;;;;;28.70;49.30;;;;;;852576;23;999;-80
2022/08/11 01:02:59;;;;;;;;;;;28.70;49.20;;;;;;852629;23;912;-82
2022/08/11 01:03:19;;;;;;;;;;;28.70;49.10;;;;;;852664;23;1405;-81
2022/08/11 01:03:52;;;;;;;;;;;28.70;48.90;;;;;;852712;23;900;-82
2022/08/11 01:04:16;;;;;;;;;;;28.70;49.00;;;;;;852652;23;854;-82
2022/08/11 01:04:55;;;;;;;;;;;28.70;49.20;;;;;;852724;23;940;-81
2022/08/11 01:05:34;;;;;;;;;;;28.70;49.10;;;;;;852620;23;1080;-81
2022/08/11 01:05:55;;;;;;;;;;;;;;;;;;852640;23;1152;-82
2022/08/11 01:06:16;;;;;;;;;;;28.70;49.10;;;;;;852658;23;866;-82
2022/08/11 01:06:48;;;;;;;;;;;28.70;49.10;;;;;;852766;23;929;-82
2022/08/11 01:07:28;;;;;;;;;;;28.70;49.00;;;;;;852724;23;976;-80
2022/08/11 01:07:48;;;;;;;;;;;28.70;48.90;;;;;;852728;23;919;-81
2022/08/11 01:08:11;;;;;;;;;;;28.80;48.90;;;;;;852707;23;889;-81
2022/08/11 01:08:41;;;;;;;;;;;28.80;49.00;;;;;;852584;23;1893;-81
2022/08/11 01:09:07;;;;;;;;;;;28.70;48.70;;;;;;852523;23;1281;-81
2022/08/11 01:09:28;;;;;;;;;;;;;;;;;;852733;23;873;-82
2022/08/11 01:09:52;;;;;;;;;;;28.80;48.60;;;;;;852614;23;1315;-82
2022/08/11 01:10:31;;;;;;;;;;;28.80;48.60;;;;;;852710;23;814;-82
2022/08/11 01:10:57;;;;;;;;;;;28.70;48.50;;;;;;852729;23;933;-83
2022/08/11 01:11:18;;;;;;;;;;;;;;;;;;852690;23;798;-83
2022/08/11 01:11:50;;;;;;;;;;;28.80;48.50;;;;;;852693;23;858;-82
2022/08/11 01:12:20;;;;;;;;;;;28.80;48.30;;;;;;852656;23;889;-82
2022/08/11 01:12:41;;;;;;;;;;;28.80;48.50;;;;;;852791;23;750;-82
2022/08/11 01:13:19;;;;;;;;;;;28.80;48.30;;;;;;852811;23;999;-81
2022/08/11 01:13:54;;;;;;;;;;;28.80;48.30;;;;;;852728;23;889;-81
2022/08/11 01:14:43;;;;;;;;;;;28.80;48.30;;;;;;852752;23;798;-82
2022/08/11 01:15:04;;;;;;;;;;;28.80;48.30;;;;;;840409;23;1153;-82
2022/08/11 01:15:47;;;;;;;;;;;28.80;48.30;;;;;;841821;23;1087;-82
2022/08/11 01:16:10;;;;;;;;;;;28.80;48.00;;;;;;832544;23;1048;-81
2022/08/11 01:16:49;;;;;;;;;;;28.80;48.10;;;;;;832610;23;1157;-81
2022/08/11 01:17:25;;;;;;;;;;;28.90;48.20;;;;;;832412;23;1115;-82
2022/08/11 01:17:49;;;;;;;;;;;28.90;48.10;;;;;;828594;23;1151;-82
2022/08/11 01:18:47;;;;;;;;;;;28.80;48.00;;;;;;828629;23;771;-81
2022/08/11 01:19:08;;;;;;;;;;;;;;;;;;824574;24;835;-82
2022/08/11 01:19:32;;;;;;;;;;;28.90;48.20;;;;;;825290;23;792;-82
2022/08/11 01:19:55;;;;;;;;;;;28.90;48.60;;;;;;828631;23;1389;-80
2022/08/11 01:20:27;;;;;;;;;;;28.90;48.40;;;;;;828578;23;1043;-81
2022/08/11 01:20:54;;;;;;;;;;;28.80;48.10;;;;;;828636;23;780;-81
2022/08/11 01:21:14;;;;;;;;;;;28.90;48.30;;;;;;828470;23;796;-84
2022/08/11 01:21:53;;;;;;;;;;;28.90;48.30;;;;;;824568;24;1420;-80
2022/08/11 01:22:14;;;;;;;;;;;28.90;48.20;;;;;;824571;24;808;-81
2022/08/11 01:22:39;;;;;;;;;;;28.90;48.10;;;;;;824841;24;879;-82
2022/08/11 01:23:08;;;;;;;;;;;28.90;48.00;;;;;;824821;24;831;-82
2022/08/11 01:23:46;;;;;;;;;;;28.90;48.00;;;;;;827118;23;804;-81
2022/08/11 01:24:07;;;;;;;;;;;28.90;47.90;;;;;;828821;23;835;-80
2022/08/11 01:24:46;;;;;;;;;;;28.90;47.90;;;;;;828670;23;907;-82
2022/08/11 01:25:07;;;;;;;;;;;;;;;;;;828888;23;931;-81
2022/08/11 01:25:43;;;;;;;;;;;28.90;47.80;;;;;;828707;23;768;-82
2022/08/11 01:26:22;;;;;;;;;;;28.90;47.70;;;;;;828628;23;852;-81
2022/08/11 01:26:46;;;;;;;;;;;28.90;47.60;;;;;;828665;23;1050;-80
2022/08/11 01:27:07;;;;;;;;;;;;;;;;;;828604;23;940;-82
2022/08/11 01:27:28;;;;;;;;;;;;;;;;;;828577;23;955;-83
2022/08/11 01:27:51;;;;;;;;;;;28.90;47.50;;;;;;828650;23;924;-81
2022/08/11 01:28:21;;;;;;;;;;;28.90;47.50;;;;;;828541;23;906;-82
2022/08/11 01:28:56;;;;;;;;;;;28.90;47.40;;;;;;828603;23;903;-82
2022/08/11 01:29:31;;;;;;;;;;;28.90;47.40;;;;;;828708;23;852;-81
2022/08/11 01:29:52;;;;;;;;;;;28.90;47.30;;;;;;828651;23;859;-84
2022/08/11 01:30:13;;;;;;;;;;;;;;;;;;828704;23;823;-83
2022/08/11 01:30:55;;;;;;;;;;;29.00;48.40;;;;;;828629;23;858;-81
2022/08/11 01:31:15;;;;;;;;;;;29.00;48.20;;;;;;828680;23;783;-81
2022/08/11 01:31:54;;;;;;;;;;;28.90;47.90;;;;;;828631;23;948;-80
2022/08/11 01:32:24;;;;;;;;;;;29.00;48.30;;;;;;828660;23;840;-80
2022/08/11 01:33:03;;;;;;;;;;;28.90;47.90;;;;;;828687;23;796;-80
2022/08/11 01:33:24;;;;;;;;;;;;;;;;;;828658;23;796;-81
2022/08/11 01:34:03;;;;;;;;;;;28.90;49.10;;;;;;828652;23;835;-80
2022/08/11 01:34:26;;;;;;;;;;;28.90;48.60;;;;;;828736;23;827;-79
2022/08/11 01:35:22;;;;;;;;;;;28.90;48.20;;;;;;824676;24;1313;-80
2022/08/11 01:35:48;;;;;;;;;;;28.90;48.90;;;;;;817112;24;860;-80
2022/08/11 01:36:27;;;;;;;;;;;29.00;49.10;;;;;;817174;24;800;-80
2022/08/11 01:36:48;;;;;;;;;;;;;;;;;;820793;24;927;-81
2022/08/11 01:37:12;;;;;;;;;;;28.90;48.70;;;;;;821076;24;788;-78
2022/08/11 01:37:32;;;;;;;;;;;28.90;48.60;;;;;;820814;24;856;-80
2022/08/11 01:37:53;;;;;;;;;;;28.90;48.90;;;;;;820950;24;884;-79
2022/08/11 01:38:24;;;;;;;;;;;28.90;48.80;;;;;;820849;24;1174;-80
2022/08/11 01:39:11;;;;;;;;;;;28.90;48.80;;;;;;820950;24;916;-80
2022/08/11 01:39:32;;;;;;;;;;;29.00;48.90;;;;;;820896;24;1082;-79
2022/08/11 01:40:01;;;;;;;;;;;28.90;48.80;;;;;;820757;24;1424;-80
2022/08/11 01:40:39;;;;;;;;;;;29.00;48.80;;;;;;820986;24;883;-81
2022/08/11 01:41:19;;;;;;;;;;;29.00;49.10;;;;;;820967;24;792;-81
2022/08/11 01:44:38;;;;;;;;;;;29.00;49.30;;;;;;820924;24;1032;-80
2022/08/11 01:45:09;;;;;;;;;;;29.00;49.10;;;;;;820760;24;1137;-80
2022/08/11 01:45:36;;;;;;;;;;;29.00;48.90;;;;;;820905;24;887;-82
2022/08/11 01:46:05;;;;;;;;;;;29.00;48.90;;;;;;820916;24;840;-81
2022/08/11 01:46:34;;;;;;;;;;;29.00;48.70;;;;;;820813;24;823;-80
2022/08/11 01:47:49;;;;;;;;;;;29.00;48.70;;;;;;820880;24;934;-81
2022/08/11 01:47:54;;;;;;;;;;;;;;;;;;820822;24;1025;-83
2022/08/11 01:48:33;;;;;;;;;;;29.00;48.60;;;;;;820761;24;883;-79
2022/08/11 01:48:56;;;;;;;;;;;29.00;48.60;;;;;;820873;24;817;-82
2022/08/11 01:49:29;;;;;;;;;;;29.00;48.50;;;;;;820940;24;872;-82
2022/08/11 01:50:03;;;;;;;;;;;29.00;48.40;;;;;;820730;24;893;-82
2022/08/11 01:50:26;;;;;;;;;;;29.00;48.30;;;;;;820965;24;931;-82
2022/08/11 01:51:00;;;;;;;;;;;29.00;48.30;;;;;;820669;24;863;-81
2022/08/11 01:51:29;;;;;;;;;;;29.00;48.10;;;;;;820956;24;1075;-81
2022/08/11 01:51:50;;;;;;;;;;;29.00;48.10;;;;;;820876;24;863;-82
2022/08/11 01:52:43;;;;;;;;;;;29.00;48.10;;;;;;820923;24;876;-82
2022/08/11 01:53:16;;;;;;;;;;;29.00;48.00;;;;;;817146;24;1182;-82
2022/08/11 01:53:36;;;;;;;;;;;29.00;47.90;;;;;;817130;24;803;-82
2022/08/11 01:53:57;;;;;;;;;;;;;;;;;;817128;24;788;-82
2022/08/11 01:54:26;;;;;;;;;;;29.00;47.90;;;;;;832111;23;1012;-83
2022/08/11 01:54:58;;;;;;;;;;;29.00;47.80;;;;;;841407;23;1318;-83
2022/08/11 01:55:25;;;;;;;;;;;29.00;47.80;;;;;;844404;23;1441;-83
2022/08/11 01:56:04;;;;;;;;;;;29.00;47.70;;;;;;844386;23;802;-82
2022/08/11 01:56:39;;;;;;;;;;;29.00;47.70;;;;;;844457;23;780;-82
2022/08/11 01:57:19;;;;;;;;;;;29.00;47.60;;;;;;844494;23;755;-82
2022/08/11 01:57:40;;;;;;;;;;;;;;;;;;844549;23;850;-82
2022/08/11 01:58:12;;;;;;;;;;;29.00;47.60;;;;;;844325;23;1104;-83
2022/08/11 01:58:59;;;;;;;;;;;29.00;47.50;;;;;;844473;23;856;-84
2022/08/11 01:59:23;;;;;;;;;;;29.00;47.60;;;;;;844396;23;932;-82
2022/08/11 01:59:49;;;;;;;;;;;29.00;47.60;;;;;;844332;23;901;-82
2022/08/11 02:00:12;;;;;;;;;;;29.00;47.60;;;;;;844532;23;869;-83
2022/08/11 02:00:41;;;;;;;;;;;29.00;47.60;;;;;;844534;23;830;-82
2022/08/11 02:01:19;;;;;;;;;;;29.00;47.70;;;;;;844422;23;818;-82
2022/08/11 02:01:39;;;;;;;;;;;29.00;47.80;;;;;;844408;23;786;-82
2022/08/11 02:02:09;;;;;;;;;;;29.00;47.90;;;;;;844434;23;787;-82
2022/08/11 02:02:46;;;;;;;;;;;;;;;;;;844548;23;850;-82
2022/08/11 02:03:06;;;;;;;;;;;29.00;47.90;;;;;;844385;23;779;-81
2022/08/11 02:03:27;;;;;;;;;;;;;;;;;;844473;23;834;-83
2022/08/11 02:03:58;;;;;;;;;;;29.00;48.10;;;;;;844545;23;783;-83
2022/08/11 02:04:37;;;;;;;;;;;29.00;48.00;;;;;;844488;23;952;-81
2022/08/11 02:04:58;;;;;;;;;;;;;;;;;;844246;23;1037;-82
2022/08/11 02:05:21;;;;;;;;;;;29.00;48.00;;;;;;844627;23;529;-82
2022/08/11 02:05:44;;;;;;;;;;;29.00;48.00;;;;;;844553;23;846;-82
2022/08/11 02:07:12;;;;;;;;;;;28.90;48.00;;;;;;844550;23;609;-81
2022/08/11 02:07:48;;;;;;;;;;;28.90;47.90;;;;;;844520;23;775;-81
2022/08/11 02:08:09;;;;;;;;;;;28.90;47.90;;;;;;844323;23;854;-82
2022/08/11 02:08:38;;;;;;;;;;;29.00;48.00;;;;;;844390;23;1938;-81
2022/08/11 02:09:13;;;;;;;;;;;28.90;47.90;;;;;;844451;23;854;-82
2022/08/11 02:09:43;;;;;;;;;;;28.90;47.90;;;;;;844415;23;870;-82
2022/08/11 02:11:29;;;;;;;;;;;28.90;47.90;;;;;;844258;23;940;-81
2022/08/11 02:11:29;;;;;;;;;;;;;;;;;;861318;23;588;-80
2022/08/11 02:11:51;;;;;;;;;;;28.90;47.90;;;;;;861168;23;920;-81
2022/08/11 02:12:36;;;;;;;;;;;28.90;47.90;;;;;;861202;23;952;-81
2022/08/11 02:13:04;;;;;;;;;;;28.90;47.90;;;;;;860340;23;1358;-82
2022/08/11 02:13:33;;;;;;;;;;;28.90;47.80;;;;;;861228;23;817;-82
2022/08/11 02:13:54;;;;;;;;;;;28.90;47.90;;;;;;861221;23;1402;-82
2022/08/11 02:14:25;;;;;;;;;;;28.90;47.90;;;;;;861305;23;848;-82
2022/08/11 02:14:46;;;;;;;;;;;;;;;;;;861107;23;847;-81
2022/08/11 02:15:07;;;;;;;;;;;28.90;47.90;;;;;;861079;23;868;-81
2022/08/11 02:15:28;;;;;;;;;;;;;;;;;;861186;23;858;-82
2022/08/11 02:16:03;;;;;;;;;;;28.90;47.90;;;;;;861333;23;845;-82
2022/08/11 02:16:23;;;;;;;;;;;28.80;47.80;;;;;;861178;23;948;-82
2022/08/11 02:16:54;;;;;;;;;;;28.80;47.80;;;;;;861240;23;865;-82
2022/08/11 02:17:40;;;;;;;;;;;28.80;47.70;;;;;;856801;23;1504;-82
2022/08/11 02:18:01;;;;;;;;;;;28.80;47.80;;;;;;850842;23;1323;-82
2022/08/11 02:23:38;;;;;;;;;;;28.80;47.80;;;;;;856952;23;765;-82
2022/08/11 02:24:13;;;;;;;;;;;28.80;47.90;;;;;;852575;23;593;-82
2022/08/11 02:24:40;;;;;;;;;;;28.80;47.90;;;;;;844495;23;767;-82
2022/08/11 02:25:01;;;;;;;;;;;;;;;;;;844374;23;1099;-82
2022/08/11 02:25:35;;;;;;;;;;;28.80;47.80;;;;;;844573;23;865;-82
2022/08/11 02:26:13;;;;;;;;;;;28.80;47.90;;;;;;839781;23;1267;-82
2022/08/11 02:26:42;;;;;;;;;;;28.80;47.80;;;;;;840314;23;970;-81
2022/08/11 02:27:08;;;;;;;;;;;28.80;47.80;;;;;;840352;23;763;-82
2022/08/11 02:27:36;;;;;;;;;;;28.70;47.80;;;;;;840331;23;861;-81
2022/08/11 02:27:57;;;;;;;;;;;;;;;;;;844278;23;830;-82
2022/08/11 02:28:18;;;;;;;;;;;;;;;;;;844293;23;806;-83
2022/08/11 02:28:56;;;;;;;;;;;28.80;47.80;;;;;;844442;23;1942;-82
2022/08/11 02:29:26;;;;;;;;;;;28.70;47.80;;;;;;844252;23;893;-82
2022/08/11 02:30:06;;;;;;;;;;;28.70;47.70;;;;;;844197;23;1120;-82
2022/08/11 02:30:31;;;;;;;;;;;28.80;47.80;;;;;;840250;23;1136;-82
2022/08/11 02:33:21;;;;;;;;;;;28.80;47.90;;;;;;840445;23;907;-81
2022/08/11 02:33:25;;;;;;;;;;;28.80;47.80;;;;;;844566;23;628;-81
2022/08/11 02:33:49;;;;;;;;;;;28.70;47.70;;;;;;844372;23;941;-81
2022/08/11 02:34:28;;;;;;;;;;;28.70;47.80;;;;;;840226;23;1591;-81
2022/08/11 02:35:04;;;;;;;;;;;28.70;47.80;;;;;;840307;23;898;-82
2022/08/11 02:35:25;;;;;;;;;;;;;;;;;;840369;23;838;-81
2022/08/11 02:35:48;;;;;;;;;;;28.70;47.80;;;;;;840397;23;942;-81
2022/08/11 02:36:23;;;;;;;;;;;28.70;47.80;;;;;;843881;23;1008;-81
2022/08/11 02:36:51;;;;;;;;;;;28.70;47.70;;;;;;844401;23;751;-81
2022/08/11 02:37:23;;;;;;;;;;;28.70;47.70;;;;;;844534;23;565;-81
2022/08/11 02:38:02;;;;;;;;;;;28.70;47.80;;;;;;844456;23;889;-81
2022/08/11 02:38:36;;;;;;;;;;;28.70;47.80;;;;;;844502;23;921;-81
2022/08/11 02:39:05;;;;;;;;;;;28.70;47.80;;;;;;844527;23;798;-81
2022/08/11 02:39:30;;;;;;;;;;;28.70;47.70;;;;;;844217;23;1089;-80
2022/08/11 02:39:57;;;;;;;;;;;28.70;47.70;;;;;;844524;23;1002;-80
2022/08/11 02:40:30;;;;;;;;;;;28.70;47.60;;;;;;844515;23;845;-81
2022/08/11 02:42:21;;;;;;;;;;;28.70;47.60;;;;;;844382;23;864;-81
2022/08/11 02:42:22;;;;;;;;;;;28.70;47.70;;;;;;844190;23;948;-81
2022/08/11 02:42:43;;;;;;;;;;;;;;;;;;844320;23;1005;-81
2022/08/11 02:43:08;;;;;;;;;;;28.70;47.70;;;;;;844411;23;945;-81
2022/08/11 02:43:38;;;;;;;;;;;28.70;47.70;;;;;;844460;23;873;-81
2022/08/11 02:44:05;;;;;;;;;;;28.70;47.70;;;;;;844442;23;880;-81
2022/08/11 02:44:36;;;;;;;;;;;28.70;47.60;;;;;;840245;23;852;-81
2022/08/11 02:45:16;;;;;;;;;;;28.70;47.70;;;;;;840444;23;783;-81
2022/08/11 02:45:40;;;;;;;;;;;28.70;47.60;;;;;;836154;23;1282;-80
2022/08/11 02:46:19;;;;;;;;;;;28.70;47.60;;;;;;836286;23;1036;-81
2022/08/11 02:46:59;;;;;;;;;;;28.70;47.60;;;;;;840410;23;775;-81
2022/08/11 02:47:26;;;;;;;;;;;28.70;47.70;;;;;;828521;23;1262;-81
2022/08/11 02:49:52;;;;;;;;;;;28.70;47.60;;;;;;844326;23;2021;-81
2022/08/11 02:50:15;;;;;;;;;;;28.60;47.60;;;;;;844499;23;603;-81
2022/08/11 02:50:39;;;;;;;;;;;28.70;47.80;;;;;;844539;23;814;-80
2022/08/11 02:51:18;;;;;;;;;;;28.60;47.80;;;;;;844467;23;917;-81
2022/08/11 02:51:57;;;;;;;;;;;28.60;47.80;;;;;;844191;23;869;-81
2022/08/11 02:52:30;;;;;;;;;;;28.70;47.80;;;;;;844421;23;1111;-81
2022/08/11 02:53:04;;;;;;;;;;;28.70;47.80;;;;;;844323;23;882;-81
2022/08/11 02:53:25;;;;;;;;;;;;;;;;;;844186;23;1020;-81
2022/08/11 02:54:01;;;;;;;;;;;28.70;47.60;;;;;;844227;23;929;-81
2022/08/11 02:54:27;;;;;;;;;;;28.70;47.60;;;;;;844428;23;861;-81
2022/08/11 02:55:06;;;;;;;;;;;28.70;47.50;;;;;;844143;23;1138;-82
2022/08/11 02:55:50;;;;;;;;;;;28.70;47.50;;;;;;844377;23;842;-81
2022/08/11 02:56:15;;;;;;;;;;;28.70;47.40;;;;;;836300;23;1231;-81
2022/08/11 02:56:51;;;;;;;;;;;28.70;47.40;;;;;;836437;23;819;-81
2022/08/11 02:57:18;;;;;;;;;;;28.70;47.40;;;;;;836421;23;1159;-81
2022/08/11 02:57:41;;;;;;;;;;;28.70;47.30;;;;;;836355;23;900;-82
2022/08/11 02:58:14;;;;;;;;;;;28.70;47.10;;;;;;836357;23;1012;-81
2022/08/11 02:58:38;;;;;;;;;;;28.70;47.20;;;;;;836523;23;966;-81
2022/08/11 02:59:50;;;;;;;;;;;;;;;;;;832351;23;614;-82
2022/08/11 03:00:12;;;;;;;;;;;28.70;47.00;;;;;;832505;23;825;-81
2022/08/11 03:00:43;;;;;;;;;;;28.80;47.10;;;;;;832507;23;795;-81
2022/08/11 03:01:12;;;;;;;;;;;28.70;46.90;;;;;;828451;23;1277;-81
2022/08/11 03:01:42;;;;;;;;;;;28.70;46.90;;;;;;828629;23;806;-81
2022/08/11 03:02:22;;;;;;;;;;;28.70;46.80;;;;;;831413;23;1294;-81
2022/08/11 03:03:01;;;;;;;;;;;28.80;46.90;;;;;;840514;23;806;-81
2022/08/11 03:03:32;;;;;;;;;;;28.80;46.90;;;;;;844416;23;848;-82
2022/08/11 03:03:52;;;;;;;;;;;;;;;;;;844340;23;755;-81
2022/08/11 03:04:19;;;;;;;;;;;28.80;46.80;;;;;;844498;23;917;-82
2022/08/11 03:04:48;;;;;;;;;;;28.80;46.70;;;;;;844334;23;842;-82
2022/08/11 03:05:19;;;;;;;;;;;28.80;46.70;;;;;;844329;23;1122;-82
2022/08/11 03:05:42;;;;;;;;;;;28.80;46.70;;;;;;844524;23;818;-82
2022/08/11 03:06:18;;;;;;;;;;;28.80;46.70;;;;;;844367;23;874;-81
2022/08/11 03:06:51;;;;;;;;;;;28.80;46.70;;;;;;844488;23;838;-81
2022/08/11 03:07:22;;;;;;;;;;;28.80;46.60;;;;;;844443;23;878;-81
2022/08/11 03:08:12;;;;;;;;;;;28.80;46.60;;;;;;844511;23;806;-81
2022/08/11 03:08:51;;;;;;;;;;;28.80;46.60;;;;;;828416;23;1905;-81